createdAt,value
2022-11-25T00:01:55.371Z,18.70
2022-11-25T00:04:23.957Z,18.73
2022-11-25T00:06:52.557Z,19.33
2022-11-25T00:09:22.660Z,18.93
2022-11-25T00:11:51.157Z,18.23
2022-11-25T00:14:19.750Z,16.50
2022-11-25T00:16:48.965Z,18.00
2022-11-25T00:19:18.562Z,17.67
2022-11-25T00:21:46.941Z,18.03
2022-11-25T00:24:17.077Z,16.87
2022-11-25T00:26:46.843Z,21.23
2022-11-25T00:29:15.635Z,18.70
2022-11-25T00:31:44.293Z,17.53
2022-11-25T00:34:14.441Z,17.87
2022-11-25T00:36:43.248Z,16.83
2022-11-25T00:39:14.042Z,16.53
2022-11-25T00:42:00.275Z,15.43
2022-11-25T00:44:40.873Z,16.30
2022-11-25T00:47:11.912Z,16.33
2022-11-25T00:49:42.903Z,16.67
2022-11-25T00:52:15.504Z,14.47
2022-11-25T00:54:44.933Z,15.07
2022-11-25T00:57:13.385Z,15.77
2022-11-25T00:59:43.709Z,14.17
2022-11-25T01:02:12.889Z,14.60
2022-11-25T01:04:42.088Z,15.07
2022-11-25T01:07:10.562Z,14.17
2022-11-25T01:09:39.205Z,15.90
2022-11-25T01:12:07.944Z,15.00
2022-11-25T01:14:37.124Z,12.60
2022-11-25T01:17:07.068Z,13.77
2022-11-25T01:19:38.430Z,12.53
2022-11-25T01:22:06.800Z,12.60
2022-11-25T01:24:35.778Z,12.97
2022-11-25T01:27:04.293Z,12.60
2022-11-25T01:29:32.951Z,12.70
2022-11-25T01:32:01.355Z,10.83
2022-11-25T01:34:32.636Z,11.33
2022-11-25T01:37:00.998Z,10.23
2022-11-25T01:39:32.819Z,11.77
2022-11-25T01:42:02.209Z,10.07
2022-11-25T01:44:33.690Z,9.70
2022-11-25T01:47:06.314Z,10.30
2022-11-25T01:49:41.907Z,9.80
2022-11-25T01:52:14.997Z,12.43
2022-11-25T01:54:48.775Z,10.50
2022-11-25T01:57:25.256Z,9.80
2022-11-25T01:59:57.356Z,10.23
2022-11-25T02:02:25.895Z,10.20
2022-11-25T02:04:57.771Z,8.97
2022-11-25T02:07:32.954Z,9.80
2022-11-25T02:10:04.667Z,9.60
2022-11-25T02:12:35.444Z,10.10
2022-11-25T02:15:05.520Z,8.77
2022-11-25T02:17:34.406Z,9.43
2022-11-25T02:20:07.703Z,9.00
2022-11-25T02:22:50.162Z,9.63
2022-11-25T02:25:23.610Z,10.27
2022-11-25T02:27:56.035Z,10.03
2022-11-25T02:30:24.635Z,8.63
2022-11-25T02:32:53.013Z,10.07
2022-11-25T02:35:30.165Z,9.03
2022-11-25T02:38:05.896Z,8.97
2022-11-25T02:40:44.415Z,9.63
2022-11-25T02:43:13.446Z,9.47
2022-11-25T02:45:54.064Z,8.97
2022-11-25T02:48:39.688Z,8.03
2022-11-25T02:51:10.723Z,8.87
2022-11-25T02:53:39.392Z,9.53
2022-11-25T02:56:10.422Z,9.70
2022-11-25T02:58:38.800Z,9.90
2022-11-25T03:01:07.974Z,10.93
2022-11-25T03:03:36.590Z,7.93
2022-11-25T03:06:05.585Z,8.37
2022-11-25T03:08:33.944Z,9.60
2022-11-25T03:11:03.079Z,9.73
2022-11-25T03:13:32.846Z,9.80
2022-11-25T03:16:01.659Z,9.83
2022-11-25T03:18:30.133Z,8.37
2022-11-25T03:20:58.690Z,10.00
2022-11-25T03:23:27.731Z,9.00
2022-11-25T03:25:56.358Z,10.37
2022-11-25T03:28:24.581Z,10.03
2022-11-25T03:30:54.565Z,9.03
2022-11-25T03:33:22.918Z,8.73
2022-11-25T03:35:51.523Z,9.27
2022-11-25T03:38:20.166Z,8.50
2022-11-25T03:40:49.411Z,9.50
2022-11-25T03:43:17.685Z,10.07
2022-11-25T03:45:49.305Z,9.07
2022-11-25T03:48:19.095Z,9.73
2022-11-25T03:50:49.793Z,10.27
2022-11-25T03:53:18.086Z,9.73
2022-11-25T03:55:49.032Z,10.10
2022-11-25T03:58:17.444Z,9.67
2022-11-25T04:00:46.121Z,9.63
2022-11-25T04:03:14.539Z,9.90
2022-11-25T04:05:44.496Z,9.50
2022-11-25T04:08:12.835Z,10.00
2022-11-25T04:10:41.319Z,9.10
2022-11-25T04:13:08.575Z,9.50
2022-11-25T04:15:37.525Z,8.67
2022-11-25T04:18:05.910Z,8.97
2022-11-25T04:20:34.415Z,9.83
2022-11-25T04:23:06.270Z,8.70
2022-11-25T04:25:35.427Z,7.90
2022-11-25T04:28:03.745Z,9.93
2022-11-25T04:30:32.508Z,8.60
2022-11-25T04:33:01.528Z,9.17
2022-11-25T04:35:30.374Z,10.57
2022-11-25T04:37:58.816Z,8.97
2022-11-25T04:40:28.808Z,8.60
2022-11-25T04:43:03.498Z,10.00
2022-11-25T04:45:58.638Z,8.60
2022-11-25T04:48:23.108Z,9.27
2022-11-25T04:50:51.728Z,9.40
2022-11-25T04:53:20.002Z,9.23
2022-11-25T04:55:49.974Z,10.23
2022-11-25T04:58:38.800Z,9.37
2022-11-25T05:01:06.694Z,8.97
2022-11-25T05:03:35.041Z,10.73
2022-11-25T05:06:07.410Z,10.80
2022-11-25T05:08:36.052Z,8.97
2022-11-25T05:11:06.224Z,9.67
2022-11-25T05:13:34.538Z,9.10
2022-11-25T05:16:03.061Z,10.70
2022-11-25T05:18:31.432Z,12.17
2022-11-25T05:21:02.704Z,14.73
2022-11-25T05:23:31.234Z,16.73
2022-11-25T05:26:01.399Z,15.27
2022-11-25T05:28:31.772Z,16.17
2022-11-25T05:31:00.332Z,14.80
2022-11-25T05:33:29.177Z,16.67
2022-11-25T05:35:59.983Z,16.63
2022-11-25T05:38:29.072Z,15.80
2022-11-25T05:41:03.200Z,17.00
2022-11-25T05:43:33.251Z,15.90
2022-11-25T05:46:05.170Z,15.77
2022-11-25T05:48:33.749Z,15.30
2022-11-25T05:51:02.901Z,15.03
2022-11-25T05:53:31.981Z,15.17
2022-11-25T05:56:02.104Z,13.20
2022-11-25T05:58:31.997Z,15.40
2022-11-25T06:01:00.950Z,13.87
2022-11-25T06:03:30.536Z,14.23
2022-11-25T06:05:59.988Z,13.60
2022-11-25T06:08:28.776Z,14.13
2022-11-25T06:10:57.392Z,15.13
2022-11-25T06:13:25.913Z,16.37
2022-11-25T06:15:55.854Z,14.60
2022-11-25T06:18:24.259Z,15.17
2022-11-25T06:20:58.691Z,15.77
2022-11-25T06:23:27.117Z,14.23
2022-11-25T06:25:55.664Z,15.70
2022-11-25T06:28:24.034Z,15.10
2022-11-25T06:30:52.644Z,15.67
2022-11-25T06:33:22.461Z,15.60
2022-11-25T06:35:51.473Z,15.77
2022-11-25T06:38:19.878Z,15.20
2022-11-25T06:40:49.053Z,16.60
2022-11-25T06:43:17.484Z,18.50
2022-11-25T06:45:46.494Z,14.93
2022-11-25T06:48:15.055Z,15.37
2022-11-25T06:50:45.265Z,16.93
2022-11-25T06:53:14.093Z,16.47
2022-11-25T06:55:42.971Z,17.63
2022-11-25T06:58:34.488Z,15.17
2022-11-25T07:01:05.168Z,17.10
2022-11-25T07:03:33.857Z,17.70
2022-11-25T07:06:04.218Z,17.77
2022-11-25T07:08:34.406Z,15.93
2022-11-25T07:11:07.636Z,18.00
2022-11-25T07:13:36.253Z,15.67
2022-11-25T07:16:06.176Z,16.80
2022-11-25T07:18:35.797Z,16.83
2022-11-25T07:21:08.645Z,15.93
2022-11-25T07:23:38.431Z,14.20
2022-11-25T07:26:09.446Z,15.93
2022-11-25T07:28:38.980Z,16.43
2022-11-25T07:31:23.416Z,15.30
2022-11-25T07:33:54.055Z,17.03
2022-11-25T07:36:25.104Z,17.33
2022-11-25T07:38:53.825Z,15.97
2022-11-25T07:41:23.919Z,15.00
2022-11-25T07:43:55.233Z,14.87
2022-11-25T07:46:27.239Z,16.50
2022-11-25T07:48:58.122Z,17.33
2022-11-25T07:51:29.970Z,14.87
2022-11-25T07:54:00.601Z,15.03
2022-11-25T07:56:30.065Z,16.33
2022-11-25T07:58:59.064Z,15.63
2022-11-25T08:01:27.727Z,15.07
2022-11-25T08:03:56.911Z,15.33
2022-11-25T08:06:28.832Z,14.73
2022-11-25T08:09:00.131Z,15.70
2022-11-25T08:11:30.549Z,16.57
2022-11-25T08:14:00.496Z,16.63
2022-11-25T08:16:31.440Z,16.80
2022-11-25T08:19:01.727Z,17.33
2022-11-25T08:21:31.742Z,16.10
2022-11-25T08:24:03.076Z,15.30
2022-11-25T08:26:34.690Z,16.33
2022-11-25T08:29:05.125Z,17.37
2022-11-25T08:31:35.545Z,18.40
2022-11-25T08:34:05.997Z,17.67
2022-11-25T08:36:37.044Z,16.90
2022-11-25T08:39:29.099Z,18.10
2022-11-25T08:41:57.045Z,17.33
2022-11-25T08:44:28.863Z,17.67
2022-11-25T08:46:57.927Z,17.63
2022-11-25T08:49:27.372Z,17.13
2022-11-25T08:51:57.405Z,16.10
2022-11-25T08:54:26.219Z,18.10
2022-11-25T08:56:55.316Z,16.87
2022-11-25T08:59:25.336Z,16.60
2022-11-25T09:01:53.837Z,17.73
2022-11-25T09:04:22.849Z,18.17
2022-11-25T09:06:51.386Z,17.17
2022-11-25T09:09:21.407Z,18.53
2022-11-25T09:11:49.927Z,18.37
2022-11-25T09:14:18.641Z,17.83
2022-11-25T09:16:47.135Z,17.47
2022-11-25T09:19:15.795Z,18.13
2022-11-25T09:21:44.911Z,18.17
2022-11-25T09:24:13.617Z,17.80
2022-11-25T09:26:45.071Z,17.50
2022-11-25T09:29:14.903Z,18.20
2022-11-25T09:31:43.455Z,18.03
2022-11-25T09:34:12.296Z,17.03
2022-11-25T09:36:40.935Z,16.93
2022-11-25T09:39:09.846Z,16.50
2022-11-25T09:42:12.593Z,15.97
2022-11-25T09:45:15.991Z,20.77
2022-11-25T09:47:57.524Z,17.53
2022-11-25T09:50:36.014Z,17.07
2022-11-25T09:53:12.239Z,17.67
2022-11-25T09:55:46.066Z,18.43
2022-11-25T09:58:27.051Z,17.93
2022-11-25T10:00:56.084Z,18.40
2022-11-25T10:03:35.728Z,18.97
2022-11-25T10:06:08.541Z,18.17
2022-11-25T10:08:40.209Z,18.07
2022-11-25T10:11:23.658Z,17.63
2022-11-25T10:13:59.369Z,17.70
2022-11-25T10:16:35.543Z,16.57
2022-11-25T10:19:13.777Z,16.13
2022-11-25T10:21:42.839Z,17.17
2022-11-25T10:24:15.358Z,15.20
2022-11-25T10:26:45.847Z,17.63
2022-11-25T10:29:25.683Z,16.03
2022-11-25T10:32:02.700Z,16.50
2022-11-25T10:34:38.073Z,15.00
2022-11-25T10:37:12.940Z,16.77
2022-11-25T10:39:41.725Z,16.67
2022-11-25T10:42:17.459Z,17.60
2022-11-25T10:44:47.357Z,15.80
2022-11-25T10:47:36.329Z,15.57
2022-11-25T10:50:16.512Z,15.40
2022-11-25T10:52:52.265Z,15.93
2022-11-25T10:55:24.378Z,17.07
2022-11-25T10:57:53.668Z,15.77
2022-11-25T11:00:33.889Z,13.40
2022-11-25T11:03:15.136Z,14.90
2022-11-25T11:05:49.099Z,15.47
2022-11-25T11:08:21.495Z,13.70
2022-11-25T11:11:11.442Z,14.97
2022-11-25T11:13:40.092Z,14.57
2022-11-25T11:16:27.779Z,13.30
2022-11-25T11:18:57.455Z,13.67
2022-11-25T11:21:31.457Z,11.70
2022-11-25T11:24:01.225Z,14.60
2022-11-25T11:26:32.015Z,13.60
2022-11-25T11:29:03.396Z,13.83
2022-11-25T11:31:39.297Z,12.77
2022-11-25T11:34:25.822Z,14.33
2022-11-25T11:37:09.783Z,13.90
2022-11-25T11:40:00.774Z,13.27
2022-11-25T11:42:40.433Z,14.93
2022-11-25T11:45:32.043Z,14.60
2022-11-25T11:48:11.036Z,15.07
2022-11-25T11:50:42.173Z,16.57
2022-11-25T11:53:17.834Z,14.13
2022-11-25T11:56:32.950Z,14.33
2022-11-25T11:59:08.336Z,14.43
2022-11-25T12:01:49.739Z,16.20
2022-11-25T12:04:26.283Z,16.57
2022-11-25T12:07:08.544Z,16.87
2022-11-25T12:09:43.291Z,16.53
2022-11-25T12:12:19.255Z,16.43
2022-11-25T12:14:51.693Z,13.27
2022-11-25T12:17:28.031Z,14.40
2022-11-25T12:20:04.852Z,16.07
2022-11-25T12:22:39.159Z,16.47
2022-11-25T12:25:15.449Z,15.43
2022-11-25T12:27:48.515Z,15.77
2022-11-25T12:30:19.494Z,14.57
2022-11-25T12:33:00.138Z,16.67
2022-11-25T12:35:53.966Z,15.30
2022-11-25T12:38:31.935Z,15.00
2022-11-25T12:41:06.887Z,15.33
2022-11-25T12:43:43.940Z,16.07
2022-11-25T12:46:20.949Z,14.80
2022-11-25T12:48:49.948Z,14.87
2022-11-25T12:51:33.402Z,14.37
2022-11-25T12:54:15.311Z,16.53
2022-11-25T12:56:56.596Z,16.63
2022-11-25T12:59:45.253Z,14.00
2022-11-25T13:02:31.706Z,16.10
2022-11-25T13:05:39.716Z,17.33
2022-11-25T13:08:23.502Z,14.50
2022-11-25T13:11:20.634Z,15.93
2022-11-25T13:13:55.235Z,16.93
2022-11-25T13:16:24.932Z,16.00
2022-11-25T13:18:54.005Z,16.80
2022-11-25T13:21:24.223Z,17.93
2022-11-25T13:23:56.516Z,14.80
2022-11-25T13:26:50.210Z,15.50
2022-11-25T13:30:01.535Z,16.53
2022-11-25T13:32:43.220Z,14.83
2022-11-25T13:35:51.839Z,15.73
2022-11-25T13:38:39.574Z,16.67
2022-11-25T13:44:06.135Z,17.43
2022-11-25T13:46:41.185Z,17.30
2022-11-25T13:49:25.025Z,16.67
2022-11-25T13:51:55.789Z,17.33
2022-11-25T13:54:32.757Z,16.53
2022-11-25T13:57:19.260Z,17.17
2022-11-25T13:59:57.986Z,18.00
2022-11-25T14:02:42.073Z,15.90
2022-11-25T14:05:47.052Z,16.77
2022-11-25T14:08:28.042Z,16.43
2022-11-25T14:11:14.834Z,18.47
2022-11-25T14:14:02.180Z,17.57
2022-11-25T14:16:51.353Z,18.70
2022-11-25T14:19:57.494Z,17.30
2022-11-25T14:22:49.437Z,18.27
2022-11-25T14:25:23.334Z,17.67
2022-11-25T14:28:03.691Z,17.03
2022-11-25T14:30:35.276Z,18.57
2022-11-25T14:33:09.444Z,17.93
2022-11-25T14:35:45.602Z,19.87
2022-11-25T14:38:18.817Z,25.03
2022-11-25T14:40:55.067Z,69.53
2022-11-25T14:43:25.402Z,68.10
2022-11-25T14:46:12.799Z,44.73
2022-11-25T14:48:43.085Z,45.83
2022-11-25T14:51:14.330Z,67.17
2022-11-25T14:53:48.083Z,119.93
2022-11-25T14:56:24.031Z,113.33
2022-11-25T14:58:55.420Z,86.63
2022-11-25T15:01:26.866Z,54.80
2022-11-25T15:04:06.260Z,33.03
2022-11-25T15:06:36.427Z,29.43
2022-11-25T15:09:17.568Z,28.77
2022-11-25T15:11:47.354Z,28.70
2022-11-25T15:14:24.896Z,24.77
2022-11-25T15:16:54.565Z,23.27
2022-11-25T15:19:33.271Z,22.37
2022-11-25T15:22:22.583Z,21.60
2022-11-25T15:24:55.485Z,19.77
2022-11-25T15:27:26.480Z,19.30
2022-11-25T15:29:57.680Z,20.03
2022-11-25T15:32:30.125Z,19.50
2022-11-25T15:35:02.258Z,20.67
2022-11-25T15:37:31.412Z,19.50
2022-11-25T15:40:44.769Z,16.70
2022-11-25T15:43:24.804Z,17.67
2022-11-25T15:45:57.673Z,17.40
2022-11-25T15:48:30.154Z,18.90
2022-11-25T15:51:05.483Z,16.57
2022-11-25T15:53:37.679Z,17.77
2022-11-25T15:56:08.496Z,21.90
2022-11-25T15:58:37.431Z,18.60
2022-11-25T16:01:07.277Z,18.40
2022-11-25T16:03:36.626Z,18.93
2022-11-25T16:06:21.698Z,19.27
2022-11-25T16:08:55.482Z,20.83
2022-11-25T16:11:25.744Z,20.93
2022-11-25T16:13:55.535Z,21.70
2022-11-25T16:16:29.353Z,24.93
2022-11-25T16:19:20.622Z,23.83
2022-11-25T16:21:57.118Z,24.20
2022-11-25T16:24:42.931Z,23.57
2022-11-25T16:27:21.429Z,25.20
2022-11-25T16:29:52.963Z,23.03
2022-11-25T16:32:23.248Z,23.90
2022-11-25T16:34:52.441Z,22.17
2022-11-25T16:37:22.321Z,24.73
2022-11-25T16:39:51.228Z,21.77
2022-11-25T16:42:21.596Z,22.90
2022-11-25T16:44:52.475Z,24.73
2022-11-25T16:47:22.664Z,24.30
2022-11-25T16:49:51.354Z,23.43
2022-11-25T16:52:21.640Z,25.97
2022-11-25T16:54:50.317Z,27.13
2022-11-25T16:57:22.202Z,30.47
2022-11-25T16:59:58.727Z,34.23
2022-11-25T17:02:27.918Z,33.23
2022-11-25T17:05:16.722Z,31.27
2022-11-25T17:07:46.773Z,33.63
2022-11-25T17:10:15.872Z,32.93
2022-11-25T17:12:45.764Z,33.30
2022-11-25T17:15:17.735Z,35.13
2022-11-25T17:17:47.661Z,33.57
2022-11-25T17:20:18.580Z,35.03
2022-11-25T17:22:48.688Z,33.57
2022-11-25T17:25:17.829Z,31.87
2022-11-25T17:27:47.089Z,35.47
2022-11-25T17:30:19.913Z,34.90
2022-11-25T17:32:49.002Z,30.63
2022-11-25T17:35:19.844Z,29.37
2022-11-25T17:37:50.549Z,28.10
2022-11-25T17:40:19.884Z,28.47
2022-11-25T17:42:50.140Z,26.83
2022-11-25T17:45:21.050Z,27.07
2022-11-25T17:47:49.691Z,26.00
2022-11-25T17:50:20.587Z,25.00
2022-11-25T17:52:51.415Z,24.20
2022-11-25T17:55:21.748Z,26.07
2022-11-25T17:57:50.829Z,24.17
2022-11-25T18:00:22.803Z,24.43
2022-11-25T18:02:51.977Z,24.23
2022-11-25T18:05:23.783Z,24.47
2022-11-25T18:07:54.069Z,23.57
2022-11-25T18:10:25.933Z,22.93
2022-11-25T18:12:56.684Z,25.53
2022-11-25T18:15:27.697Z,23.53
2022-11-25T18:18:01.198Z,23.80
2022-11-25T18:20:32.801Z,21.27
2022-11-25T18:23:03.807Z,29.03
2022-11-25T18:25:35.102Z,28.13
2022-11-25T18:28:05.738Z,29.20
2022-11-25T18:30:36.733Z,29.80
2022-11-25T18:33:09.049Z,28.20
2022-11-25T18:35:37.834Z,27.23
2022-11-25T18:38:08.394Z,26.50
2022-11-25T18:40:40.318Z,24.33
2022-11-25T18:43:16.985Z,22.40
2022-11-25T18:45:47.013Z,21.97
2022-11-25T18:48:17.589Z,21.83
2022-11-25T18:50:47.644Z,22.23
2022-11-25T18:53:17.910Z,23.23
2022-11-25T18:55:47.222Z,21.30
2022-11-25T18:58:18.657Z,20.13
2022-11-25T19:00:49.641Z,20.50
2022-11-25T19:03:20.723Z,18.97
2022-11-25T19:05:50.635Z,18.50
2022-11-25T19:08:20.574Z,18.97
2022-11-25T19:10:50.060Z,19.23
2022-11-25T19:13:22.948Z,18.23
2022-11-25T19:15:51.675Z,18.03
2022-11-25T19:18:25.618Z,19.47
2022-11-25T19:20:54.547Z,20.27
2022-11-25T19:23:27.918Z,20.83
2022-11-25T19:26:01.226Z,21.33
2022-11-25T19:28:31.197Z,19.10
2022-11-25T19:31:03.139Z,20.30
2022-11-25T19:33:35.384Z,19.53
2022-11-25T19:36:04.375Z,18.97
2022-11-25T19:38:34.963Z,20.30
2022-11-25T19:41:04.064Z,20.90
2022-11-25T19:43:32.444Z,19.57
2022-11-25T19:46:02.252Z,19.90
2022-11-25T19:48:38.723Z,19.53
2022-11-25T19:51:07.705Z,16.67
2022-11-25T19:53:37.444Z,19.27
2022-11-25T19:56:07.765Z,19.17
2022-11-25T19:58:36.117Z,18.27
2022-11-25T20:01:06.441Z,19.03
2022-11-25T20:03:36.897Z,18.50
2022-11-25T20:06:06.596Z,20.07
2022-11-25T20:08:35.188Z,20.43
2022-11-25T20:11:05.718Z,19.83
2022-11-25T20:13:34.617Z,19.40
2022-11-25T20:16:04.414Z,18.77
2022-11-25T20:18:33.044Z,20.10
2022-11-25T20:21:04.895Z,20.47
2022-11-25T20:23:41.961Z,20.43
2022-11-25T20:26:18.514Z,19.90
2022-11-25T20:28:47.003Z,19.93
2022-11-25T20:31:16.103Z,19.13
2022-11-25T20:33:44.715Z,20.10
2022-11-25T20:36:16.679Z,16.80
2022-11-25T20:38:48.287Z,18.50
2022-11-25T20:41:22.917Z,18.70
2022-11-25T20:43:54.827Z,18.47
2022-11-25T20:46:26.295Z,20.80
2022-11-25T20:48:56.860Z,19.70
2022-11-25T20:51:26.479Z,21.93
2022-11-25T20:53:58.157Z,20.63
2022-11-25T20:56:28.971Z,18.30
2022-11-25T20:58:57.878Z,21.63
2022-11-25T21:01:26.699Z,23.40
2022-11-25T21:03:55.531Z,24.87
2022-11-25T21:06:28.725Z,25.40
2022-11-25T21:08:59.363Z,25.77
2022-11-25T21:11:33.119Z,22.17
2022-11-25T21:14:01.644Z,24.60
2022-11-25T21:16:30.779Z,23.10
2022-11-25T21:18:59.237Z,21.73
2022-11-25T21:21:32.733Z,22.07
2022-11-25T21:24:07.881Z,22.97
2022-11-25T21:26:38.293Z,21.73
2022-11-25T21:29:07.075Z,20.23
2022-11-25T21:31:36.067Z,21.40
2022-11-25T21:34:11.838Z,23.30
2022-11-25T21:36:41.587Z,20.70
2022-11-25T21:39:21.098Z,20.10
2022-11-25T21:41:51.808Z,21.20
2022-11-25T21:44:27.888Z,20.93
2022-11-25T21:46:56.769Z,18.33
2022-11-25T21:49:25.977Z,19.80
2022-11-25T21:51:54.843Z,21.13
2022-11-25T21:54:23.226Z,21.33
2022-11-25T21:56:53.447Z,20.67
2022-11-25T21:59:22.132Z,18.60
2022-11-25T22:01:50.776Z,19.30
2022-11-25T22:04:21.595Z,20.37
2022-11-25T22:06:51.151Z,18.13
2022-11-25T22:09:19.690Z,17.57
2022-11-25T22:11:50.378Z,16.87
2022-11-25T22:14:28.803Z,19.13
2022-11-25T22:16:58.108Z,17.83
2022-11-25T22:19:28.817Z,18.60
2022-11-25T22:21:57.544Z,18.30
2022-11-25T22:24:26.417Z,18.33
2022-11-25T22:26:58.152Z,17.77
2022-11-25T22:29:35.753Z,16.87
2022-11-25T22:32:09.621Z,16.93
2022-11-25T22:34:41.151Z,17.03
2022-11-25T22:37:17.955Z,17.33
2022-11-25T22:39:46.575Z,16.90
2022-11-25T22:42:21.105Z,18.23
2022-11-25T22:44:51.652Z,17.33
2022-11-25T22:47:27.194Z,17.47
2022-11-25T22:49:56.097Z,16.43
2022-11-25T22:52:28.360Z,17.70
2022-11-25T22:54:59.220Z,17.57
2022-11-25T22:57:27.889Z,16.50
2022-11-25T22:59:57.687Z,16.30
2022-11-25T23:02:32.649Z,17.90
2022-11-25T23:05:01.612Z,16.40
2022-11-25T23:07:30.990Z,17.07
2022-11-25T23:09:59.499Z,19.27
2022-11-25T23:12:28.173Z,15.73
2022-11-25T23:14:58.006Z,15.20
2022-11-25T23:17:27.008Z,17.73
2022-11-25T23:19:55.474Z,18.23
2022-11-25T23:22:24.188Z,18.27
2022-11-25T23:24:52.596Z,17.67
2022-11-25T23:27:21.245Z,16.87
2022-11-25T23:29:49.625Z,17.13
2022-11-25T23:32:21.731Z,17.50
2022-11-25T23:34:51.596Z,16.70
2022-11-25T23:37:20.428Z,17.47
2022-11-25T23:39:53.220Z,17.20
2022-11-25T23:42:22.317Z,19.23
2022-11-25T23:44:50.868Z,18.20
2022-11-25T23:47:23.199Z,19.50
2022-11-25T23:49:53.296Z,21.47
2022-11-25T23:52:25.455Z,19.07
2022-11-25T23:54:54.273Z,18.17
2022-11-25T23:57:25.640Z,20.43
2022-11-25T23:59:54.698Z,18.63
